sensor_id;sensor_type;location;lat;lon;timestamp;P1;durP1;ratioP1;P2;durP2;ratioP2
76693;SDS011;65625;52.136;5.424;2023-04-24T00:00:59;2.03;;;0.88;;
76693;SDS011;65625;52.136;5.424;2023-04-24T00:03:27;1.77;;;0.52;;
76693;SDS011;65625;52.136;5.424;2023-04-24T00:05:54;1.42;;;0.80;;
76693;SDS011;65625;52.136;5.424;2023-04-24T00:08:21;1.35;;;0.80;;
76693;SDS011;65625;52.136;5.424;2023-04-24T00:10:48;2.13;;;0.75;;
76693;SDS011;65625;52.136;5.424;2023-04-24T00:13:15;2.08;;;0.80;;
76693;SDS011;65625;52.136;5.424;2023-04-24T00:15:42;2.17;;;0.90;;
76693;SDS011;65625;52.136;5.424;2023-04-24T00:18:08;2.88;;;0.90;;
76693;SDS011;65625;52.136;5.424;2023-04-24T00:20:34;1.65;;;0.90;;
76693;SDS011;65625;52.136;5.424;2023-04-24T00:23:04;2.75;;;1.15;;
76693;SDS011;65625;52.136;5.424;2023-04-24T00:25:30;2.55;;;1.58;;
76693;SDS011;65625;52.136;5.424;2023-04-24T00:27:57;2.72;;;1.02;;
76693;SDS011;65625;52.136;5.424;2023-04-24T00:30:23;2.63;;;1.30;;
76693;SDS011;65625;52.136;5.424;2023-04-24T00:32:50;2.47;;;1.20;;
76693;SDS011;65625;52.136;5.424;2023-04-24T00:35:16;2.20;;;1.33;;
76693;SDS011;65625;52.136;5.424;2023-04-24T00:40:12;2.25;;;1.40;;
76693;SDS011;65625;52.136;5.424;2023-04-24T00:45:09;2.38;;;1.23;;
76693;SDS011;65625;52.136;5.424;2023-04-24T00:47:36;2.70;;;1.38;;
76693;SDS011;65625;52.136;5.424;2023-04-24T00:50:06;2.78;;;1.55;;
76693;SDS011;65625;52.136;5.424;2023-04-24T00:52:33;4.43;;;1.58;;
76693;SDS011;65625;52.136;5.424;2023-04-24T00:55:00;3.80;;;2.00;;
76693;SDS011;65625;52.136;5.424;2023-04-24T00:57:26;4.35;;;1.80;;
76693;SDS011;65625;52.136;5.424;2023-04-24T00:59:53;4.75;;;2.17;;
76693;SDS011;65625;52.136;5.424;2023-04-24T01:02:21;4.43;;;1.65;;
76693;SDS011;65625;52.136;5.424;2023-04-24T01:04:50;3.60;;;1.90;;
76693;SDS011;65625;52.136;5.424;2023-04-24T01:07:18;3.85;;;1.88;;
76693;SDS011;65625;52.136;5.424;2023-04-24T01:09:47;4.30;;;1.92;;
76693;SDS011;65625;52.136;5.424;2023-04-24T01:12:15;3.10;;;1.95;;
76693;SDS011;65625;52.136;5.424;2023-04-24T01:14:43;4.40;;;2.53;;
76693;SDS011;65625;52.136;5.424;2023-04-24T01:17:10;5.28;;;2.40;;
76693;SDS011;65625;52.136;5.424;2023-04-24T01:19:38;4.30;;;2.28;;
76693;SDS011;65625;52.136;5.424;2023-04-24T01:22:11;4.25;;;2.30;;
76693;SDS011;65625;52.136;5.424;2023-04-24T01:24:40;5.20;;;2.45;;
76693;SDS011;65625;52.136;5.424;2023-04-24T01:27:07;6.53;;;2.85;;
76693;SDS011;65625;52.136;5.424;2023-04-24T01:29:35;5.07;;;2.28;;
76693;SDS011;65625;52.136;5.424;2023-04-24T01:32:02;4.38;;;2.50;;
76693;SDS011;65625;52.136;5.424;2023-04-24T01:34:30;3.58;;;2.45;;
76693;SDS011;65625;52.136;5.424;2023-04-24T01:36:57;3.65;;;2.22;;
76693;SDS011;65625;52.136;5.424;2023-04-24T01:39:24;4.30;;;2.85;;
76693;SDS011;65625;52.136;5.424;2023-04-24T01:41:52;4.07;;;2.47;;
76693;SDS011;65625;52.136;5.424;2023-04-24T01:44:20;4.13;;;2.42;;
76693;SDS011;65625;52.136;5.424;2023-04-24T01:46:47;4.20;;;2.33;;
76693;SDS011;65625;52.136;5.424;2023-04-24T01:49:14;4.70;;;2.67;;
76693;SDS011;65625;52.136;5.424;2023-04-24T01:51:40;4.10;;;2.60;;
76693;SDS011;65625;52.136;5.424;2023-04-24T01:54:07;5.65;;;2.80;;
76693;SDS011;65625;52.136;5.424;2023-04-24T01:56:34;5.55;;;2.72;;
76693;SDS011;65625;52.136;5.424;2023-04-24T01:59:04;4.25;;;2.60;;
76693;SDS011;65625;52.136;5.424;2023-04-24T02:01:34;4.35;;;2.75;;
76693;SDS011;65625;52.136;5.424;2023-04-24T02:04:02;6.05;;;3.10;;
76693;SDS011;65625;52.136;5.424;2023-04-24T02:06:29;5.38;;;3.17;;
76693;SDS011;65625;52.136;5.424;2023-04-24T02:08:59;6.93;;;2.88;;
76693;SDS011;65625;52.136;5.424;2023-04-24T02:11:27;5.55;;;2.72;;
76693;SDS011;65625;52.136;5.424;2023-04-24T02:13:53;7.95;;;3.28;;
76693;SDS011;65625;52.136;5.424;2023-04-24T02:16:20;4.57;;;2.75;;
76693;SDS011;65625;52.136;5.424;2023-04-24T02:18:47;5.63;;;3.30;;
76693;SDS011;65625;52.136;5.424;2023-04-24T02:21:13;6.18;;;3.30;;
76693;SDS011;65625;52.136;5.424;2023-04-24T02:23:40;4.30;;;2.67;;
76693;SDS011;65625;52.136;5.424;2023-04-24T02:26:07;5.88;;;2.92;;
76693;SDS011;65625;52.136;5.424;2023-04-24T02:28:33;4.93;;;2.55;;
76693;SDS011;65625;52.136;5.424;2023-04-24T02:31:00;4.47;;;2.53;;
76693;SDS011;65625;52.136;5.424;2023-04-24T02:33:26;4.72;;;2.67;;
76693;SDS011;65625;52.136;5.424;2023-04-24T02:35:53;4.57;;;2.97;;
76693;SDS011;65625;52.136;5.424;2023-04-24T02:38:19;3.88;;;2.42;;
76693;SDS011;65625;52.136;5.424;2023-04-24T02:40:46;6.00;;;2.58;;
76693;SDS011;65625;52.136;5.424;2023-04-24T02:43:12;3.45;;;2.00;;
76693;SDS011;65625;52.136;5.424;2023-04-24T02:45:39;4.35;;;2.10;;
76693;SDS011;65625;52.136;5.424;2023-04-24T02:48:05;3.53;;;2.00;;
76693;SDS011;65625;52.136;5.424;2023-04-24T02:50:35;4.05;;;2.20;;
76693;SDS011;65625;52.136;5.424;2023-04-24T02:53:01;5.95;;;2.70;;
76693;SDS011;65625;52.136;5.424;2023-04-24T02:55:28;5.03;;;2.75;;
76693;SDS011;65625;52.136;5.424;2023-04-24T02:57:54;4.82;;;2.55;;
76693;SDS011;65625;52.136;5.424;2023-04-24T03:00:22;3.85;;;2.33;;
76693;SDS011;65625;52.136;5.424;2023-04-24T03:02:48;5.25;;;2.80;;
76693;SDS011;65625;52.136;5.424;2023-04-24T03:05:16;4.75;;;2.40;;
76693;SDS011;65625;52.136;5.424;2023-04-24T03:07:42;5.55;;;2.97;;
76693;SDS011;65625;52.136;5.424;2023-04-24T03:10:09;6.75;;;2.90;;
76693;SDS011;65625;52.136;5.424;2023-04-24T03:12:35;4.40;;;2.60;;
76693;SDS011;65625;52.136;5.424;2023-04-24T03:15:02;5.70;;;2.65;;
76693;SDS011;65625;52.136;5.424;2023-04-24T03:17:29;5.55;;;2.67;;
76693;SDS011;65625;52.136;5.424;2023-04-24T03:19:56;4.28;;;2.72;;
76693;SDS011;65625;52.136;5.424;2023-04-24T03:22:22;5.05;;;2.95;;
76693;SDS011;65625;52.136;5.424;2023-04-24T03:24:49;4.53;;;2.65;;
76693;SDS011;65625;52.136;5.424;2023-04-24T03:27:19;4.65;;;2.13;;
76693;SDS011;65625;52.136;5.424;2023-04-24T03:29:53;3.75;;;2.35;;
76693;SDS011;65625;52.136;5.424;2023-04-24T03:32:29;7.63;;;2.60;;
76693;SDS011;65625;52.136;5.424;2023-04-24T03:34:56;6.47;;;2.53;;
76693;SDS011;65625;52.136;5.424;2023-04-24T03:37:23;4.22;;;2.67;;
76693;SDS011;65625;52.136;5.424;2023-04-24T03:40:01;4.63;;;2.60;;
76693;SDS011;65625;52.136;5.424;2023-04-24T03:42:28;5.22;;;2.45;;
76693;SDS011;65625;52.136;5.424;2023-04-24T03:44:55;5.60;;;2.50;;
76693;SDS011;65625;52.136;5.424;2023-04-24T03:47:26;4.55;;;2.60;;
76693;SDS011;65625;52.136;5.424;2023-04-24T03:49:55;5.00;;;2.20;;
76693;SDS011;65625;52.136;5.424;2023-04-24T03:52:22;4.18;;;2.40;;
76693;SDS011;65625;52.136;5.424;2023-04-24T03:54:49;4.00;;;2.28;;
76693;SDS011;65625;52.136;5.424;2023-04-24T03:57:17;4.60;;;2.60;;
76693;SDS011;65625;52.136;5.424;2023-04-24T03:59:56;5.05;;;2.78;;
76693;SDS011;65625;52.136;5.424;2023-04-24T04:02:24;5.50;;;2.75;;
76693;SDS011;65625;52.136;5.424;2023-04-24T04:04:50;4.50;;;2.47;;
76693;SDS011;65625;52.136;5.424;2023-04-24T04:07:17;6.10;;;2.70;;
76693;SDS011;65625;52.136;5.424;2023-04-24T04:09:44;4.07;;;2.05;;
76693;SDS011;65625;52.136;5.424;2023-04-24T04:12:10;3.85;;;2.03;;
76693;SDS011;65625;52.136;5.424;2023-04-24T04:14:37;3.65;;;1.80;;
76693;SDS011;65625;52.136;5.424;2023-04-24T04:17:04;3.60;;;1.50;;
76693;SDS011;65625;52.136;5.424;2023-04-24T04:19:31;2.63;;;1.50;;
76693;SDS011;65625;52.136;5.424;2023-04-24T04:21:57;2.90;;;1.48;;
76693;SDS011;65625;52.136;5.424;2023-04-24T04:24:34;2.55;;;1.33;;
76693;SDS011;65625;52.136;5.424;2023-04-24T04:27:04;2.50;;;1.38;;
76693;SDS011;65625;52.136;5.424;2023-04-24T04:29:38;3.72;;;1.60;;
76693;SDS011;65625;52.136;5.424;2023-04-24T04:32:08;3.38;;;1.58;;
76693;SDS011;65625;52.136;5.424;2023-04-24T04:34:35;2.80;;;1.60;;
76693;SDS011;65625;52.136;5.424;2023-04-24T04:37:04;5.15;;;1.58;;
76693;SDS011;65625;52.136;5.424;2023-04-24T04:39:45;4.47;;;1.80;;
76693;SDS011;65625;52.136;5.424;2023-04-24T04:42:17;3.10;;;1.58;;
76693;SDS011;65625;52.136;5.424;2023-04-24T04:44:45;2.80;;;1.73;;
76693;SDS011;65625;52.136;5.424;2023-04-24T04:47:16;4.03;;;1.85;;
76693;SDS011;65625;52.136;5.424;2023-04-24T04:49:44;4.55;;;2.42;;
76693;SDS011;65625;52.136;5.424;2023-04-24T04:52:17;5.07;;;2.75;;
76693;SDS011;65625;52.136;5.424;2023-04-24T04:54:47;5.50;;;2.83;;
76693;SDS011;65625;52.136;5.424;2023-04-24T04:57:14;4.60;;;2.47;;
76693;SDS011;65625;52.136;5.424;2023-04-24T04:59:41;6.68;;;3.05;;
76693;SDS011;65625;52.136;5.424;2023-04-24T05:02:13;5.57;;;3.03;;
76693;SDS011;65625;52.136;5.424;2023-04-24T05:04:40;6.20;;;3.13;;
76693;SDS011;65625;52.136;5.424;2023-04-24T05:07:07;7.97;;;3.28;;
76693;SDS011;65625;52.136;5.424;2023-04-24T05:09:37;6.00;;;3.10;;
76693;SDS011;65625;52.136;5.424;2023-04-24T05:12:05;6.22;;;3.38;;
76693;SDS011;65625;52.136;5.424;2023-04-24T05:14:36;6.90;;;3.10;;
76693;SDS011;65625;52.136;5.424;2023-04-24T05:17:03;5.95;;;3.00;;
76693;SDS011;65625;52.136;5.424;2023-04-24T05:19:30;5.82;;;2.85;;
76693;SDS011;65625;52.136;5.424;2023-04-24T05:21:59;5.68;;;2.53;;
76693;SDS011;65625;52.136;5.424;2023-04-24T05:24:30;5.38;;;2.75;;
76693;SDS011;65625;52.136;5.424;2023-04-24T05:27:07;7.30;;;3.20;;
76693;SDS011;65625;52.136;5.424;2023-04-24T05:29:38;6.47;;;2.85;;
76693;SDS011;65625;52.136;5.424;2023-04-24T05:32:05;5.28;;;2.47;;
76693;SDS011;65625;52.136;5.424;2023-04-24T05:34:32;4.63;;;2.40;;
76693;SDS011;65625;52.136;5.424;2023-04-24T05:36:58;5.32;;;2.28;;
76693;SDS011;65625;52.136;5.424;2023-04-24T05:39:25;5.20;;;2.65;;
76693;SDS011;65625;52.136;5.424;2023-04-24T05:41:53;6.45;;;2.90;;
76693;SDS011;65625;52.136;5.424;2023-04-24T05:44:19;4.35;;;2.25;;
76693;SDS011;65625;52.136;5.424;2023-04-24T05:46:46;13.85;;;3.95;;
76693;SDS011;65625;52.136;5.424;2023-04-24T05:49:13;4.63;;;2.38;;
76693;SDS011;65625;52.136;5.424;2023-04-24T05:51:40;5.55;;;2.58;;
76693;SDS011;65625;52.136;5.424;2023-04-24T05:54:07;6.35;;;2.63;;
76693;SDS011;65625;52.136;5.424;2023-04-24T05:56:33;5.53;;;2.50;;
76693;SDS011;65625;52.136;5.424;2023-04-24T05:59:03;5.00;;;1.90;;
76693;SDS011;65625;52.136;5.424;2023-04-24T06:01:30;4.03;;;2.13;;
76693;SDS011;65625;52.136;5.424;2023-04-24T06:04:05;4.22;;;2.10;;
76693;SDS011;65625;52.136;5.424;2023-04-24T06:06:33;4.35;;;2.10;;
76693;SDS011;65625;52.136;5.424;2023-04-24T06:09:01;5.68;;;2.03;;
76693;SDS011;65625;52.136;5.424;2023-04-24T06:11:28;3.75;;;1.70;;
76693;SDS011;65625;52.136;5.424;2023-04-24T06:13:55;5.40;;;1.60;;
76693;SDS011;65625;52.136;5.424;2023-04-24T06:16:36;2.67;;;1.05;;
76693;SDS011;65625;52.136;5.424;2023-04-24T06:19:14;2.38;;;1.17;;
76693;SDS011;65625;52.136;5.424;2023-04-24T06:21:41;3.17;;;1.25;;
76693;SDS011;65625;52.136;5.424;2023-04-24T06:24:07;3.33;;;0.90;;
76693;SDS011;65625;52.136;5.424;2023-04-24T06:26:33;2.38;;;0.82;;
76693;SDS011;65625;52.136;5.424;2023-04-24T06:29:00;1.85;;;0.70;;
76693;SDS011;65625;52.136;5.424;2023-04-24T06:31:26;1.90;;;0.60;;
76693;SDS011;65625;52.136;5.424;2023-04-24T06:33:53;1.48;;;0.63;;
76693;SDS011;65625;52.136;5.424;2023-04-24T06:36:20;1.73;;;0.75;;
76693;SDS011;65625;52.136;5.424;2023-04-24T06:38:46;1.67;;;0.77;;
76693;SDS011;65625;52.136;5.424;2023-04-24T06:41:13;2.28;;;0.80;;
76693;SDS011;65625;52.136;5.424;2023-04-24T06:43:39;4.07;;;1.10;;
76693;SDS011;65625;52.136;5.424;2023-04-24T06:46:06;3.28;;;1.50;;
76693;SDS011;65625;52.136;5.424;2023-04-24T06:48:33;6.47;;;2.47;;
76693;SDS011;65625;52.136;5.424;2023-04-24T06:50:59;6.68;;;3.30;;
76693;SDS011;65625;52.136;5.424;2023-04-24T06:53:26;8.18;;;3.53;;
76693;SDS011;65625;52.136;5.424;2023-04-24T06:55:53;8.93;;;4.38;;
76693;SDS011;65625;52.136;5.424;2023-04-24T06:58:20;11.10;;;4.88;;
76693;SDS011;65625;52.136;5.424;2023-04-24T07:00:47;10.32;;;4.72;;
76693;SDS011;65625;52.136;5.424;2023-04-24T07:03:13;11.60;;;5.00;;
76693;SDS011;65625;52.136;5.424;2023-04-24T07:05:40;11.63;;;5.07;;
76693;SDS011;65625;52.136;5.424;2023-04-24T07:08:07;12.15;;;5.13;;
76693;SDS011;65625;52.136;5.424;2023-04-24T07:10:37;10.27;;;5.20;;
76693;SDS011;65625;52.136;5.424;2023-04-24T07:13:03;12.68;;;5.13;;
76693;SDS011;65625;52.136;5.424;2023-04-24T07:15:30;12.40;;;5.45;;
76693;SDS011;65625;52.136;5.424;2023-04-24T07:17:58;11.80;;;5.45;;
76693;SDS011;65625;52.136;5.424;2023-04-24T07:20:24;12.30;;;5.88;;
76693;SDS011;65625;52.136;5.424;2023-04-24T07:22:52;11.80;;;5.75;;
76693;SDS011;65625;52.136;5.424;2023-04-24T07:25:20;9.18;;;5.15;;
76693;SDS011;65625;52.136;5.424;2023-04-24T07:27:46;11.23;;;5.25;;
76693;SDS011;65625;52.136;5.424;2023-04-24T07:30:14;12.00;;;5.40;;
76693;SDS011;65625;52.136;5.424;2023-04-24T07:32:40;21.73;;;5.47;;
76693;SDS011;65625;52.136;5.424;2023-04-24T07:35:07;14.40;;;5.60;;
76693;SDS011;65625;52.136;5.424;2023-04-24T07:37:36;12.02;;;5.80;;
76693;SDS011;65625;52.136;5.424;2023-04-24T07:40:02;11.63;;;5.18;;
76693;SDS011;65625;52.136;5.424;2023-04-24T07:42:29;13.10;;;5.45;;
76693;SDS011;65625;52.136;5.424;2023-04-24T07:45:01;10.10;;;4.97;;
76693;SDS011;65625;52.136;5.424;2023-04-24T07:47:27;12.93;;;5.00;;
76693;SDS011;65625;52.136;5.424;2023-04-24T07:49:54;11.32;;;4.63;;
76693;SDS011;65625;52.136;5.424;2023-04-24T07:52:21;11.20;;;4.72;;
76693;SDS011;65625;52.136;5.424;2023-04-24T07:54:47;10.13;;;5.15;;
76693;SDS011;65625;52.136;5.424;2023-04-24T07:57:14;11.45;;;4.90;;
76693;SDS011;65625;52.136;5.424;2023-04-24T07:59:40;10.88;;;4.50;;
76693;SDS011;65625;52.136;5.424;2023-04-24T08:02:07;10.32;;;4.72;;
76693;SDS011;65625;52.136;5.424;2023-04-24T08:04:34;10.77;;;5.40;;
76693;SDS011;65625;52.136;5.424;2023-04-24T08:07:01;14.63;;;4.47;;
76693;SDS011;65625;52.136;5.424;2023-04-24T08:09:27;8.85;;;4.53;;
76693;SDS011;65625;52.136;5.424;2023-04-24T08:11:54;11.93;;;4.82;;
76693;SDS011;65625;52.136;5.424;2023-04-24T08:14:20;8.88;;;3.83;;
76693;SDS011;65625;52.136;5.424;2023-04-24T08:16:47;9.15;;;3.92;;
76693;SDS011;65625;52.136;5.424;2023-04-24T08:19:13;8.35;;;3.50;;
76693;SDS011;65625;52.136;5.424;2023-04-24T08:21:39;15.48;;;3.50;;
76693;SDS011;65625;52.136;5.424;2023-04-24T08:24:06;6.70;;;2.92;;
76693;SDS011;65625;52.136;5.424;2023-04-24T08:26:34;6.95;;;3.45;;
76693;SDS011;65625;52.136;5.424;2023-04-24T08:29:00;9.27;;;2.97;;
76693;SDS011;65625;52.136;5.424;2023-04-24T08:31:27;6.72;;;2.33;;
76693;SDS011;65625;52.136;5.424;2023-04-24T08:33:54;5.57;;;2.22;;
76693;SDS011;65625;52.136;5.424;2023-04-24T08:36:20;4.82;;;2.35;;
76693;SDS011;65625;52.136;5.424;2023-04-24T08:38:48;9.75;;;2.35;;
76693;SDS011;65625;52.136;5.424;2023-04-24T08:41:15;9.07;;;2.35;;
76693;SDS011;65625;52.136;5.424;2023-04-24T08:43:45;9.18;;;3.00;;
76693;SDS011;65625;52.136;5.424;2023-04-24T08:46:12;12.52;;;3.47;;
76693;SDS011;65625;52.136;5.424;2023-04-24T08:48:39;12.48;;;2.92;;
76693;SDS011;65625;52.136;5.424;2023-04-24T08:51:07;10.00;;;2.40;;
76693;SDS011;65625;52.136;5.424;2023-04-24T08:53:34;7.30;;;1.85;;
76693;SDS011;65625;52.136;5.424;2023-04-24T08:56:01;14.02;;;2.70;;
76693;SDS011;65625;52.136;5.424;2023-04-24T08:58:28;7.97;;;1.48;;
76693;SDS011;65625;52.136;5.424;2023-04-24T09:00:57;11.25;;;1.60;;
76693;SDS011;65625;52.136;5.424;2023-04-24T09:03:24;15.57;;;1.95;;
76693;SDS011;65625;52.136;5.424;2023-04-24T09:05:53;11.60;;;2.10;;
76693;SDS011;65625;52.136;5.424;2023-04-24T09:08:22;8.52;;;1.80;;
76693;SDS011;65625;52.136;5.424;2023-04-24T09:10:51;4.82;;;1.38;;
76693;SDS011;65625;52.136;5.424;2023-04-24T09:13:18;8.63;;;1.80;;
76693;SDS011;65625;52.136;5.424;2023-04-24T09:15:48;8.13;;;2.28;;
76693;SDS011;65625;52.136;5.424;2023-04-24T09:18:15;7.03;;;1.50;;
76693;SDS011;65625;52.136;5.424;2023-04-24T09:20:57;12.10;;;2.75;;
76693;SDS011;65625;52.136;5.424;2023-04-24T09:23:29;8.98;;;1.88;;
76693;SDS011;65625;52.136;5.424;2023-04-24T09:25:57;7.97;;;1.70;;
76693;SDS011;65625;52.136;5.424;2023-04-24T09:33:57;6.22;;;1.52;;
76693;SDS011;65625;52.136;5.424;2023-04-24T09:36:36;8.40;;;1.85;;
76693;SDS011;65625;52.136;5.424;2023-04-24T09:39:08;6.75;;;1.40;;
76693;SDS011;65625;52.136;5.424;2023-04-24T09:42:13;6.88;;;1.75;;
76693;SDS011;65625;52.136;5.424;2023-04-24T09:44:33;7.15;;;1.45;;
76693;SDS011;65625;52.136;5.424;2023-04-24T09:47:00;6.40;;;1.45;;
76693;SDS011;65625;52.136;5.424;2023-04-24T09:49:27;8.30;;;1.70;;
76693;SDS011;65625;52.136;5.424;2023-04-24T09:52:08;8.35;;;1.92;;
76693;SDS011;65625;52.136;5.424;2023-04-24T09:54:36;12.18;;;1.77;;
76693;SDS011;65625;52.136;5.424;2023-04-24T09:57:03;6.10;;;1.38;;
76693;SDS011;65625;52.136;5.424;2023-04-24T09:59:30;5.10;;;1.58;;
76693;SDS011;65625;52.136;5.424;2023-04-24T10:01:57;6.47;;;1.70;;
76693;SDS011;65625;52.136;5.424;2023-04-24T10:04:26;7.57;;;1.77;;
76693;SDS011;65625;52.136;5.424;2023-04-24T10:09:23;4.70;;;1.70;;
76693;SDS011;65625;52.136;5.424;2023-04-24T10:11:52;7.35;;;1.63;;
76693;SDS011;65625;52.136;5.424;2023-04-24T10:14:21;9.40;;;1.25;;
76693;SDS011;65625;52.136;5.424;2023-04-24T10:16:50;5.43;;;1.25;;
76693;SDS011;65625;52.136;5.424;2023-04-24T10:19:19;5.82;;;1.30;;
76693;SDS011;65625;52.136;5.424;2023-04-24T10:21:47;8.48;;;1.40;;
76693;SDS011;65625;52.136;5.424;2023-04-24T10:24:14;4.00;;;1.15;;
76693;SDS011;65625;52.136;5.424;2023-04-24T10:29:10;6.70;;;1.27;;
76693;SDS011;65625;52.136;5.424;2023-04-24T10:31:39;6.03;;;1.10;;
76693;SDS011;65625;52.136;5.424;2023-04-24T10:34:06;8.88;;;1.52;;
76693;SDS011;65625;52.136;5.424;2023-04-24T10:36:34;2.08;;;0.63;;
76693;SDS011;65625;52.136;5.424;2023-04-24T10:39:03;3.63;;;0.90;;
76693;SDS011;65625;52.136;5.424;2023-04-24T10:41:36;5.75;;;1.05;;
76693;SDS011;65625;52.136;5.424;2023-04-24T10:44:04;4.57;;;1.02;;
76693;SDS011;65625;52.136;5.424;2023-04-24T10:46:34;9.18;;;1.10;;
76693;SDS011;65625;52.136;5.424;2023-04-24T10:49:04;3.47;;;0.70;;
76693;SDS011;65625;52.136;5.424;2023-04-24T10:51:51;4.15;;;0.57;;
76693;SDS011;65625;52.136;5.424;2023-04-24T10:56:52;3.25;;;0.50;;
76693;SDS011;65625;52.136;5.424;2023-04-24T10:59:25;3.22;;;0.80;;
76693;SDS011;65625;52.136;5.424;2023-04-24T11:01:53;4.30;;;0.50;;
76693;SDS011;65625;52.136;5.424;2023-04-24T11:04:31;2.10;;;0.50;;
76693;SDS011;65625;52.136;5.424;2023-04-24T11:06:59;2.58;;;0.70;;
76693;SDS011;65625;52.136;5.424;2023-04-24T11:09:27;2.05;;;0.60;;
76693;SDS011;65625;52.136;5.424;2023-04-24T11:12:02;2.60;;;0.47;;
76693;SDS011;65625;52.136;5.424;2023-04-24T11:17:35;1.83;;;0.60;;
76693;SDS011;65625;52.136;5.424;2023-04-24T11:20:07;2.65;;;0.52;;
76693;SDS011;65625;52.136;5.424;2023-04-24T11:22:55;5.15;;;0.90;;
76693;SDS011;65625;52.136;5.424;2023-04-24T11:25:23;2.90;;;0.90;;
76693;SDS011;65625;52.136;5.424;2023-04-24T11:27:51;3.35;;;0.68;;
76693;SDS011;65625;52.136;5.424;2023-04-24T11:30:29;2.70;;;0.52;;
76693;SDS011;65625;52.136;5.424;2023-04-24T11:33:01;2.35;;;0.65;;
76693;SDS011;65625;52.136;5.424;2023-04-24T11:35:29;4.07;;;0.60;;
76693;SDS011;65625;52.136;5.424;2023-04-24T11:37:56;2.60;;;0.57;;
76693;SDS011;65625;52.136;5.424;2023-04-24T11:40:26;2.67;;;0.70;;
76693;SDS011;65625;52.136;5.424;2023-04-24T11:42:53;9.07;;;0.82;;
76693;SDS011;65625;52.136;5.424;2023-04-24T11:45:29;2.55;;;0.77;;
76693;SDS011;65625;52.136;5.424;2023-04-24T11:47:57;3.50;;;0.70;;
76693;SDS011;65625;52.136;5.424;2023-04-24T11:50:25;1.63;;;0.50;;
76693;SDS011;65625;52.136;5.424;2023-04-24T11:52:53;3.75;;;0.73;;
76693;SDS011;65625;52.136;5.424;2023-04-24T11:57:49;3.33;;;0.50;;
76693;SDS011;65625;52.136;5.424;2023-04-24T12:02:48;2.75;;;0.40;;
76693;SDS011;65625;52.136;5.424;2023-04-24T12:05:20;1.08;;;0.50;;
76693;SDS011;65625;52.136;5.424;2023-04-24T12:07:48;1.20;;;0.32;;
76693;SDS011;65625;52.136;5.424;2023-04-24T12:10:19;1.30;;;0.40;;
76693;SDS011;65625;52.136;5.424;2023-04-24T12:12:47;4.78;;;0.57;;
76693;SDS011;65625;52.136;5.424;2023-04-24T12:15:13;2.80;;;0.40;;
76693;SDS011;65625;52.136;5.424;2023-04-24T12:17:42;2.50;;;0.55;;
76693;SDS011;65625;52.136;5.424;2023-04-24T12:20:09;2.05;;;0.40;;
76693;SDS011;65625;52.136;5.424;2023-04-24T12:22:52;2.92;;;0.50;;
76693;SDS011;65625;52.136;5.424;2023-04-24T12:25:28;1.98;;;0.40;;
76693;SDS011;65625;52.136;5.424;2023-04-24T12:30:29;5.93;;;0.70;;
76693;SDS011;65625;52.136;5.424;2023-04-24T12:33:02;4.88;;;0.95;;
76693;SDS011;65625;52.136;5.424;2023-04-24T12:35:30;4.43;;;0.68;;
76693;SDS011;65625;52.136;5.424;2023-04-24T12:38:06;5.13;;;1.25;;
76693;SDS011;65625;52.136;5.424;2023-04-24T12:43:00;2.58;;;0.63;;
76693;SDS011;65625;52.136;5.424;2023-04-24T12:45:27;2.30;;;0.70;;
76693;SDS011;65625;52.136;5.424;2023-04-24T12:47:54;3.45;;;1.20;;
76693;SDS011;65625;52.136;5.424;2023-04-24T12:50:20;5.03;;;1.10;;
76693;SDS011;65625;52.136;5.424;2023-04-24T12:52:47;3.10;;;0.80;;
76693;SDS011;65625;52.136;5.424;2023-04-24T12:55:13;4.13;;;0.60;;
76693;SDS011;65625;52.136;5.424;2023-04-24T12:57:40;7.32;;;1.08;;
76693;SDS011;65625;52.136;5.424;2023-04-24T13:00:07;7.57;;;1.00;;
76693;SDS011;65625;52.136;5.424;2023-04-24T13:02:34;6.05;;;1.08;;
76693;SDS011;65625;52.136;5.424;2023-04-24T13:05:02;4.20;;;1.00;;
76693;SDS011;65625;52.136;5.424;2023-04-24T13:07:28;7.78;;;1.35;;
76693;SDS011;65625;52.136;5.424;2023-04-24T13:09:55;8.80;;;1.23;;
76693;SDS011;65625;52.136;5.424;2023-04-24T13:12:23;9.25;;;1.55;;
76693;SDS011;65625;52.136;5.424;2023-04-24T13:14:53;3.15;;;0.80;;
76693;SDS011;65625;52.136;5.424;2023-04-24T13:17:19;4.43;;;1.27;;
76693;SDS011;65625;52.136;5.424;2023-04-24T13:19:46;8.73;;;1.15;;
76693;SDS011;65625;52.136;5.424;2023-04-24T13:24:41;7.22;;;1.30;;
76693;SDS011;65625;52.136;5.424;2023-04-24T13:27:08;8.95;;;1.30;;
76693;SDS011;65625;52.136;5.424;2023-04-24T13:29:36;8.15;;;2.03;;
76693;SDS011;65625;52.136;5.424;2023-04-24T13:32:03;7.30;;;1.40;;
76693;SDS011;65625;52.136;5.424;2023-04-24T13:34:29;7.22;;;1.50;;
76693;SDS011;65625;52.136;5.424;2023-04-24T13:36:57;11.27;;;1.45;;
76693;SDS011;65625;52.136;5.424;2023-04-24T13:39:25;8.02;;;1.50;;
76693;SDS011;65625;52.136;5.424;2023-04-24T13:41:55;9.77;;;1.50;;
76693;SDS011;65625;52.136;5.424;2023-04-24T13:44:21;10.25;;;1.70;;
76693;SDS011;65625;52.136;5.424;2023-04-24T13:46:49;5.65;;;1.30;;
76693;SDS011;65625;52.136;5.424;2023-04-24T13:49:18;9.68;;;1.48;;
76693;SDS011;65625;52.136;5.424;2023-04-24T13:51:45;9.50;;;1.85;;
76693;SDS011;65625;52.136;5.424;2023-04-24T13:54:13;6.13;;;1.50;;
76693;SDS011;65625;52.136;5.424;2023-04-24T13:56:39;9.60;;;1.58;;
76693;SDS011;65625;52.136;5.424;2023-04-24T13:59:06;5.25;;;1.70;;
76693;SDS011;65625;52.136;5.424;2023-04-24T14:01:33;9.77;;;1.90;;
76693;SDS011;65625;52.136;5.424;2023-04-24T14:03:59;4.43;;;1.42;;
76693;SDS011;65625;52.136;5.424;2023-04-24T14:06:26;7.18;;;1.50;;
76693;SDS011;65625;52.136;5.424;2023-04-24T14:08:53;8.32;;;1.80;;
76693;SDS011;65625;52.136;5.424;2023-04-24T14:11:19;10.55;;;1.60;;
76693;SDS011;65625;52.136;5.424;2023-04-24T14:13:46;13.82;;;3.65;;
76693;SDS011;65625;52.136;5.424;2023-04-24T14:16:13;9.73;;;2.05;;
76693;SDS011;65625;52.136;5.424;2023-04-24T14:18:40;9.02;;;1.63;;
76693;SDS011;65625;52.136;5.424;2023-04-24T14:21:07;7.88;;;1.60;;
76693;SDS011;65625;52.136;5.424;2023-04-24T14:23:33;8.10;;;1.63;;
76693;SDS011;65625;52.136;5.424;2023-04-24T14:26:00;7.90;;;1.70;;
76693;SDS011;65625;52.136;5.424;2023-04-24T14:28:26;10.63;;;2.00;;
76693;SDS011;65625;52.136;5.424;2023-04-24T14:30:53;7.43;;;2.13;;
76693;SDS011;65625;52.136;5.424;2023-04-24T14:33:20;5.80;;;1.33;;
76693;SDS011;65625;52.136;5.424;2023-04-24T14:35:46;8.00;;;1.70;;
76693;SDS011;65625;52.136;5.424;2023-04-24T14:38:13;9.85;;;1.95;;
76693;SDS011;65625;52.136;5.424;2023-04-24T14:40:41;13.60;;;1.90;;
76693;SDS011;65625;52.136;5.424;2023-04-24T14:43:11;5.10;;;1.52;;
76693;SDS011;65625;52.136;5.424;2023-04-24T14:45:37;6.75;;;1.80;;
76693;SDS011;65625;52.136;5.424;2023-04-24T14:48:04;7.57;;;2.13;;
76693;SDS011;65625;52.136;5.424;2023-04-24T14:50:31;6.68;;;1.70;;
76693;SDS011;65625;52.136;5.424;2023-04-24T14:52:57;7.10;;;1.80;;
76693;SDS011;65625;52.136;5.424;2023-04-24T14:55:24;7.78;;;2.00;;
76693;SDS011;65625;52.136;5.424;2023-04-24T14:57:52;8.50;;;1.75;;
76693;SDS011;65625;52.136;5.424;2023-04-24T15:00:19;12.63;;;2.20;;
76693;SDS011;65625;52.136;5.424;2023-04-24T15:02:46;6.95;;;2.00;;
76693;SDS011;65625;52.136;5.424;2023-04-24T15:05:13;11.70;;;2.20;;
76693;SDS011;65625;52.136;5.424;2023-04-24T15:07:40;11.98;;;2.47;;
76693;SDS011;65625;52.136;5.424;2023-04-24T15:10:07;7.13;;;1.83;;
76693;SDS011;65625;52.136;5.424;2023-04-24T15:12:34;5.10;;;1.60;;
76693;SDS011;65625;52.136;5.424;2023-04-24T15:15:01;6.90;;;2.25;;
76693;SDS011;65625;52.136;5.424;2023-04-24T15:17:28;7.88;;;1.70;;
76693;SDS011;65625;52.136;5.424;2023-04-24T15:19:54;8.95;;;1.60;;
76693;SDS011;65625;52.136;5.424;2023-04-24T15:22:21;5.82;;;1.50;;
76693;SDS011;65625;52.136;5.424;2023-04-24T15:24:47;5.68;;;1.92;;